Hong Kong International Airport

VHHH · 離島區, Hong Kong

罗盘
风向 的 风向 140° 香港國際機場 7R/25L
风: 9 kt, 3 beaufort

3 kt

8 kt
改变
0 ft 1.000 2.000 3.000 4.000 5.000
Cloud Cloud
FEW 900
Cloud Cloud Cloud Cloud
SCT 2.000
METAR VHHH 242130Z 14009KT 9999 FEW009 SCT020 27/24 Q1007 NOSIG

METAR 香港國際機場 - VHHH/HKG

香港國際機場是,Hong Kong中的大型机场。 该机场位于纬度22,31448和经度113,90759。 该机场有2条跑道: 7R/25L 和 7L/25R. 本场的ICAO机场代码为VHHH。 该机场的IATA代码为HKG。 机场在Hong Kong FIR中。

该航空气象观测是针对香港國際機場在2024年4月25日 05:30, 当地时间进行的。

机场观察

风向为140°,速度为9 kt。

可见度为10 km 或者更多。

有几云在900 ft的高度 和 疏云,零星散落的云朵在2.000 ft的高度。 没有观察到天花板。

温度和风寒是27 °C。 热指数为31。 露点为24 °C,相对湿度为84%。 海平面上的气压为1007 hPa (QNH)。

白天

今天,太阳从05:56升起,在18:48降落。 这适用于香港國際機場,世界夏令时可能有所不同。 当地时间与世界标准时间之间的时差为+8 小时。 夏令时目前正在进行中。

公司介绍

我们没有关于这个机场的公司信息。

体会

到Vliegles.nl去找飞行课程,跳伞和其他飞行体验。 浏览页面,了解香港國際機場附近所有可用的活动。 你也可以使用搜索功能来寻找你所在地附近的特定飞行课程、跳伞或其他飞行体验。

跑道

Id 标题 侧风 逆风 侧风 %
7R/25L 070°-250° 8 kt 3 kt 94 %
7L/25R 071°-251° 8 kt 3 kt 93 %

逆风成分最大的方向会被突出显示,并用于横风计算。 这并不一定意味着这个方向在使用。

乌云

900 ft FEW 几云
2.000 ft SCT 疏云,零星散落的云朵

温度 & 天气

温度 27 °C
露点 24 °C
相对湿度 84%
热度指数 31 °C
Kp-index 0 (0-9)

白天

日出
05:56 (8m)
中午
12:22
日落
18:48

小工具

你想在你的网站上有一个关于香港國際機場的当前航空天气(METAR)的小部件吗?

显示HTML代码
报告变更